Time;durP1;ratioP1;P1;durP2;ratioP2;P2;SDS_P1;SDS_P2;PMS_P1;PMS_P2;Temp;Humidity;BMP_temperature;BMP_pressure;BME280_temperature;BME280_humidity;BME280_pressure;Samples;Min_cycle;Max_cycle;Signal;HPM_P1;HPM_P2
2023/06/12 00:01:40;;;;;;;;;;;;;;;;;;6287822;22;19915;-92
2023/06/12 00:04:06;;;;;;;;;;;;;;;;;;6296481;22;19918;-92
2023/06/12 00:06:31;;;;;;;;;;;;;;;;;;6302949;22;19944;-91
2023/06/12 00:08:57;;;;;;;;;;;;;;;;;;6300610;22;19948;-91
2023/06/12 00:11:23;;;;;;;;;;;;;;;;;;6302324;22;19919;-93
2023/06/12 00:13:49;;;;;;;;;;;;;;;;;;6302164;22;19943;-91
2023/06/12 00:16:16;;;;;;;;;;;;;;;;;;6295751;22;19940;-92
2023/06/12 00:18:42;;;;;;;;;;;;;;;;;;6288655;22;19915;-93
2023/06/12 00:21:08;;;;;;;;;;;;;;;;;;6287488;22;19995;-92
2023/06/12 00:23:34;;;;;;;;;;;;;;;;;;6285271;22;19946;-91
2023/06/12 00:26:00;;;;;;;;;;;;;;;;;;6282757;22;20010;-92
2023/06/12 00:28:26;;;;;;;;;;;;;;;;;;6279975;22;20325;-92
2023/06/12 00:30:52;;;;;;;;;;;;;;;;;;6280332;22;19922;-91
2023/06/12 00:33:18;;;;;;;;;;;;;;;;;;6280150;22;19928;-92
2023/06/12 00:35:44;;;;;;;;;;;;;;;;;;6280151;22;19915;-93
2023/06/12 00:38:10;;;;;;;;;;;;;;;;;;6280039;22;19933;-92
2023/06/12 00:40:37;;;;;;;;;;;;;;;;;;6280046;22;19915;-93
2023/06/12 00:43:11;;;;;;;;;;;;;;;;;;6279977;22;20449;-94
2023/06/12 00:45:37;;;;;;;;;;;;;;;;;;6280240;22;20075;-92
2023/06/12 00:48:03;;;;;;;;;;;;;;;;;;6281655;22;20096;-93
2023/06/12 00:50:29;;;;;;;;;;;;;;;;;;6281507;22;20012;-92
2023/06/12 00:52:54;;;;;;;;;;;;;;;;;;6282031;22;19919;-93
2023/06/12 00:55:20;;;;;;;;;;;;;;;;;;6282075;22;19919;-92
2023/06/12 00:57:47;;;;;;;;;;;;;;;;;;6281404;22;19915;-92
2023/06/12 01:00:14;;;;;;;;;;;;;;;;;;6281744;22;19987;-92
2023/06/12 01:02:42;;;;;;;;;;;;;;;;;;6282198;22;19922;-92
2023/06/12 01:05:10;;;;;;;;;;;;;;;;;;6282108;22;19930;-93
2023/06/12 01:07:36;;;;;;;;;;;;;;;;;;6281866;22;19915;-91
2023/06/12 01:10:03;;;;;;;;;;;;;;;;;;6282124;22;19993;-92
2023/06/12 01:12:29;;;;;;;;;;;;;;;;;;6281859;22;20339;-92
2023/06/12 01:14:55;;;;;;;;;;;;;;;;;;6281829;22;19922;-92
2023/06/12 01:17:21;;;;;;;;;;;;;;;;;;6281939;22;19922;-92
2023/06/12 01:19:48;;;;;;;;;;;;;;;;;;6281763;22;19921;-93
2023/06/12 01:22:16;;;;;;;;;;;;;;;;;;6281509;22;19919;-93
2023/06/12 01:24:42;;;;;;;;;;;;;;;;;;6281861;22;19915;-93
2023/06/12 01:27:08;;;;;;;;;;;;;;;;;;6281251;22;19915;-93
2023/06/12 01:29:34;;;;;;;;;;;;;;;;;;6281892;22;19915;-94
2023/06/12 01:32:01;;;;;;;;;;;;;;;;;;6281468;22;19977;-92
2023/06/12 01:34:27;;;;;;;;;;;;;;;;;;6281058;22;20157;-92
2023/06/12 01:36:53;;;;;;;;;;;;;;;;;;6280652;22;20093;-92
2023/06/12 01:39:20;;;;;;;;;;;;;;;;;;6281395;22;19922;-92
2023/06/12 01:41:46;;;;;;;;;;;;;;;;;;6281201;22;19915;-91
2023/06/12 01:44:12;;;;;;;;;;;;;;;;;;6280786;22;19915;-92
2023/06/12 01:46:38;;;;;;;;;;;;;;;;;;6281452;22;19964;-92
2023/06/12 01:49:04;;;;;;;;;;;;;;;;;;6281379;22;19915;-92
2023/06/12 01:51:30;;;;;;;;;;;;;;;;;;6281142;22;19961;-91
2023/06/12 01:53:56;;;;;;;;;;;;;;;;;;6281233;22;19925;-94
2023/06/12 01:56:25;;;;;;;;;;;;;;;;;;6281204;22;19915;-93
2023/06/12 01:58:51;;;;;;;;;;;;;;;;;;6280406;22;20233;-92
2023/06/12 02:01:17;;;;;;;;;;;;;;;;;;6281510;22;19972;-92
2023/06/12 02:03:45;;;;;;;;;;;;;;;;;;6281444;22;20328;-93
2023/06/12 02:06:11;;;;;;;;;;;;;;;;;;6280883;22;19914;-92
2023/06/12 02:08:37;;;;;;;;;;;;;;;;;;6280845;22;19926;-93
2023/06/12 02:11:03;;;;;;;;;;;;;;;;;;6281281;22;19964;-92
2023/06/12 02:13:29;;;;;;;;;;;;;;;;;;6281109;22;19945;-92
2023/06/12 02:15:55;;;;;;;;;;;;;;;;;;6281130;22;19951;-92
2023/06/12 02:18:21;;;;;;;;;;;;;;;;;;6281041;22;19993;-92
2023/06/12 02:20:49;;;;;;;;;;;;;;;;;;6281576;22;20279;-92
2023/06/12 02:23:15;;;;;;;;;;;;;;;;;;6281024;22;19952;-92
2023/06/12 02:25:40;;;;;;;;;;;;;;;;;;6280762;22;19969;-93
2023/06/12 02:28:06;;;;;;;;;;;;;;;;;;6280941;22;19922;-93
2023/06/12 02:30:32;;;;;;;;;;;;;;;;;;6280984;22;19915;-93
2023/06/12 02:32:58;;;;;;;;;;;;;;;;;;6281380;22;19986;-92
2023/06/12 02:35:24;;;;;;;;;;;;;;;;;;6281096;22;19965;-92
2023/06/12 02:37:50;;;;;;;;;;;;;;;;;;6281143;22;19946;-93
2023/06/12 02:40:16;;;;;;;;;;;;;;;;;;6281479;22;19926;-92
2023/06/12 02:42:42;;;;;;;;;;;;;;;;;;6281398;22;19925;-93
2023/06/12 02:45:08;;;;;;;;;;;;;;;;;;6281008;22;20049;-93
2023/06/12 02:47:34;;;;;;;;;;;;;;;;;;6281073;22;20214;-92
2023/06/12 02:50:00;;;;;;;;;;;;;;;;;;6280910;22;20252;-93
2023/06/12 02:52:26;;;;;;;;;;;;;;;;;;6281646;22;19915;-93
2023/06/12 02:54:52;;;;;;;;;;;;;;;;;;6282995;22;19993;-92
2023/06/12 02:57:18;;;;;;;;;;;;;;;;;;6281428;22;19926;-93
2023/06/12 02:59:44;;;;;;;;;;;;;;;;;;6281277;22;19923;-92
2023/06/12 03:02:10;;;;;;;;;;;;;;;;;;6281023;22;19934;-91
2023/06/12 03:04:36;;;;;;;;;;;;;;;;;;6282916;22;20039;-92
2023/06/12 03:07:06;;;;;;;;;;;;;;;;;;6281428;22;20343;-92
2023/06/12 03:09:32;;;;;;;;;;;;;;;;;;6280858;22;19919;-92
2023/06/12 03:11:59;;;;;;;;;;;;;;;;;;6281451;22;19983;-92
2023/06/12 03:14:26;;;;;;;;;;;;;;;;;;6282356;22;20044;-94
2023/06/12 03:16:52;;;;;;;;;;;;;;;;;;6280299;22;19915;-93
2023/06/12 03:19:18;;;;;;;;;;;;;;;;;;6280751;22;19925;-93
2023/06/12 03:21:44;;;;;;;;;;;;;;;;;;6280094;22;19915;-92
2023/06/12 03:24:10;;;;;;;;;;;;;;;;;;6282224;22;19915;-92
2023/06/12 03:26:41;;;;;;;;;;;;;;;;;;6282447;22;19922;-92
2023/06/12 03:29:07;;;;;;;;;;;;;;;;;;6282201;22;19919;-92
2023/06/12 03:31:33;;;;;;;;;;;;;;;;;;6282657;22;19945;-91
2023/06/12 03:33:59;;;;;;;;;;;;;;;;;;6284701;22;20328;-93
2023/06/12 03:36:25;;;;;;;;;;;;;;;;;;6285180;22;19915;-93
2023/06/12 03:38:51;;;;;;;;;;;;;;;;;;6281671;22;20023;-93
2023/06/12 03:41:17;;;;;;;;;;;;;;;;;;6280694;22;19915;-93
2023/06/12 03:43:43;;;;;;;;;;;;;;;;;;6280239;22;19915;-94
2023/06/12 03:46:09;;;;;;;;;;;;;;;;;;6280635;22;19926;-93
2023/06/12 03:48:35;;;;;;;;;;;;;;;;;;6280754;22;19915;-93
2023/06/12 03:51:01;;;;;;;;;;;;;;;;;;6280731;22;19915;-93
2023/06/12 03:53:27;;;;;;;;;;;;;;;;;;6281087;22;20177;-92
2023/06/12 03:55:53;;;;;;;;;;;;;;;;;;6281981;22;20329;-94
2023/06/12 03:58:19;;;;;;;;;;;;;;;;;;6281321;22;20337;-93
2023/06/12 04:00:48;;;;;;;;;;;;;;;;;;6306423;22;19986;-93
2023/06/12 04:03:14;;;;;;;;;;;;;;;;;;6280072;22;20287;-93
2023/06/12 04:05:40;;;;;;;;;;;;;;;;;;6280343;22;19915;-93
2023/06/12 04:08:05;;;;;;;;;;;;;;;;;;6283200;22;19921;-94
2023/06/12 04:10:33;;;;;;;;;;;;;;;;;;6281253;22;19915;-93
2023/06/12 04:12:59;;;;;;;;;;;;;;;;;;6281485;22;19926;-92
2023/06/12 04:15:26;;;;;;;;;;;;;;;;;;6281011;22;19964;-92
2023/06/12 04:17:52;;;;;;;;;;;;;;;;;;6282437;22;19915;-93
2023/06/12 04:20:18;;;;;;;;;;;;;;;;;;6281542;22;20349;-91
2023/06/12 04:22:47;;;;;;;;;;;;;;;;;;6282476;22;20271;-92
2023/06/12 04:25:14;;;;;;;;;;;;;;;;;;6282488;22;20253;-91
2023/06/12 04:27:42;;;;;;;;;;;;;;;;;;6282642;22;19915;-93
2023/06/12 04:30:08;;;;;;;;;;;;;;;;;;6283205;22;19962;-94
2023/06/12 04:32:34;;;;;;;;;;;;;;;;;;6283730;22;19919;-93
2023/06/12 04:35:01;;;;;;;;;;;;;;;;;;6284581;22;19923;-92
2023/06/12 04:37:28;;;;;;;;;;;;;;;;;;6284152;22;20088;-94
2023/06/12 04:39:54;;;;;;;;;;;;;;;;;;6283475;22;19923;-93
2023/06/12 04:42:23;;;;;;;;;;;;;;;;;;6282641;22;20032;-92
2023/06/12 04:44:49;;;;;;;;;;;;;;;;;;6283497;22;19915;-93
2023/06/12 04:47:16;;;;;;;;;;;;;;;;;;6285250;22;19915;-93
2023/06/12 04:49:45;;;;;;;;;;;;;;;;;;6285811;22;20325;-94
2023/06/12 04:52:12;;;;;;;;;;;;;;;;;;6283279;22;19915;-93
2023/06/12 04:54:41;;;;;;;;;;;;;;;;;;6282763;22;19929;-93
2023/06/12 04:57:07;;;;;;;;;;;;;;;;;;6282902;22;19946;-94
2023/06/12 04:59:37;;;;;;;;;;;;;;;;;;6282753;22;20218;-94
2023/06/12 05:02:03;;;;;;;;;;;;;;;;;;6282321;22;19971;-92
2023/06/12 05:04:28;;;;;;;;;;;;;;;;;;6282227;22;19922;-94
2023/06/12 05:06:56;;;;;;;;;;;;;;;;;;6281845;22;20009;-92
2023/06/12 05:09:22;;;;;;;;;;;;;;;;;;6283761;22;19915;-92
2023/06/12 05:11:48;;;;;;;;;;;;;;;;;;6283830;22;19961;-93
2023/06/12 05:14:13;;;;;;;;;;;;;;;;;;6281569;22;19926;-93
2023/06/12 05:16:39;;;;;;;;;;;;;;;;;;6282102;22;19926;-93
2023/06/12 05:19:06;;;;;;;;;;;;;;;;;;6282495;22;19935;-93
2023/06/12 05:21:32;;;;;;;;;;;;;;;;;;6282319;22;19915;-94
2023/06/12 05:23:58;;;;;;;;;;;;;;;;;;6281856;22;19940;-93
2023/06/12 05:26:24;;;;;;;;;;;;;;;;;;6281761;22;19941;-94
2023/06/12 05:28:50;;;;;;;;;;;;;;;;;;6281930;22;19919;-91
2023/06/12 05:31:16;;;;;;;;;;;;;;;;;;6281723;22;19914;-93
2023/06/12 05:33:42;;;;;;;;;;;;;;;;;;6281512;22;19915;-93
2023/06/12 05:36:08;;;;;;;;;;;;;;;;;;6281113;22;19945;-93
2023/06/12 05:38:34;;;;;;;;;;;;;;;;;;6281000;22;19925;-94
2023/06/12 05:41:00;;;;;;;;;;;;;;;;;;6281641;22;19915;-94
2023/06/12 05:43:26;;;;;;;;;;;;;;;;;;6280930;22;19915;-92
2023/06/12 05:45:51;;;;;;;;;;;;;;;;;;6281399;22;19915;-94
2023/06/12 05:48:17;;;;;;;;;;;;;;;;;;6281109;22;19930;-94
2023/06/12 05:50:43;;;;;;;;;;;;;;;;;;6281537;22;19918;-93
2023/06/12 05:53:10;;;;;;;;;;;;;;;;;;6281253;22;19915;-92
2023/06/12 05:55:36;;;;;;;;;;;;;;;;;;6281422;22;20333;-94
2023/06/12 05:58:02;;;;;;;;;;;;;;;;;;6281406;22;20001;-93
2023/06/12 06:00:28;;;;;;;;;;;;;;;;;;6281251;22;19945;-94
2023/06/12 06:02:54;;;;;;;;;;;;;;;;;;6281397;22;20287;-94
2023/06/12 06:05:23;;;;;;;;;;;;;;;;;;6280925;22;19950;-94
2023/06/12 06:07:50;;;;;;;;;;;;;;;;;;6281592;22;19922;-93
2023/06/12 06:10:16;;;;;;;;;;;;;;;;;;6285108;22;19915;-93
2023/06/12 06:12:42;;;;;;;;;;;;;;;;;;6282331;22;19915;-93
2023/06/12 06:15:08;;;;;;;;;;;;;;;;;;6281464;22;20263;-93
2023/06/12 06:17:34;;;;;;;;;;;;;;;;;;6281108;22;20010;-93
2023/06/12 06:20:00;;;;;;;;;;;;;;;;;;6281033;22;19947;-93
2023/06/12 06:22:26;;;;;;;;;;;;;;;;;;6281153;22;19922;-92
2023/06/12 06:24:52;;;;;;;;;;;;;;;;;;6280713;22;19940;-92
2023/06/12 06:27:18;;;;;;;;;;;;;;;;;;6280940;22;19982;-94
2023/06/12 06:29:44;;;;;;;;;;;;;;;;;;6280995;22;19936;-93
2023/06/12 06:32:10;;;;;;;;;;;;;;;;;;6280502;22;19926;-92
2023/06/12 06:34:37;;;;;;;;;;;;;;;;;;6280734;22;19926;-93
2023/06/12 06:37:03;;;;;;;;;;;;;;;;;;6280886;22;19964;-94
2023/06/12 06:39:29;;;;;;;;;;;;;;;;;;6283097;22;19976;-92
2023/06/12 06:41:55;;;;;;;;;;;;;;;;;;6282414;22;19988;-92
2023/06/12 06:44:21;;;;;;;;;;;;;;;;;;6282498;22;19922;-94
2023/06/12 06:46:47;;;;;;;;;;;;;;;;;;6282197;22;19915;-92
2023/06/12 06:49:13;;;;;;;;;;;;;;;;;;6282989;22;19915;-93
2023/06/12 06:51:39;;;;;;;;;;;;;;;;;;6281992;22;20419;-92
2023/06/12 06:54:05;;;;;;;;;;;;;;;;;;6283164;22;20335;-94
2023/06/12 06:56:30;;;;;;;;;;;;;;;;;;6283492;22;19915;-92
2023/06/12 06:58:56;;;;;;;;;;;;;;;;;;6283096;22;19964;-92
2023/06/12 07:01:27;;;;;;;;;;;;;;;;;;6281809;22;19950;-92
2023/06/12 07:03:53;;;;;;;;;;;;;;;;;;6282219;22;19915;-92
2023/06/12 07:06:19;;;;;;;;;;;;;;;;;;6282829;22;20012;-93
2023/06/12 07:08:45;;;;;;;;;;;;;;;;;;6281523;22;20272;-92
2023/06/12 07:11:11;;;;;;;;;;;;;;;;;;6283660;22;19914;-92
2023/06/12 07:13:38;;;;;;;;;;;;;;;;;;6281814;22;19947;-92
2023/06/12 07:16:04;;;;;;;;;;;;;;;;;;6280665;22;19915;-91
2023/06/12 07:18:31;;;;;;;;;;;;;;;;;;6280371;22;19922;-93
2023/06/12 07:20:57;;;;;;;;;;;;;;;;;;6282728;22;19914;-94
2023/06/12 07:23:22;;;;;;;;;;;;;;;;;;6279845;22;19915;-94
2023/06/12 07:25:48;;;;;;;;;;;;;;;;;;6279739;22;19915;-93
2023/06/12 07:28:14;;;;;;;;;;;;;;;;;;6281416;22;19914;-92
2023/06/12 07:30:40;;;;;;;;;;;;;;;;;;6280920;22;19915;-93
2023/06/12 07:33:06;;;;;;;;;;;;;;;;;;6280407;22;20225;-94
2023/06/12 07:35:32;;;;;;;;;;;;;;;;;;6280635;22;20245;-93
2023/06/12 07:37:58;;;;;;;;;;;;;;;;;;6280346;22;20311;-93
2023/06/12 07:40:24;;;;;;;;;;;;;;;;;;6280682;22;20067;-93
2023/06/12 07:42:50;;;;;;;;;;;;;;;;;;6280200;22;19914;-93
2023/06/12 07:45:16;;;;;;;;;;;;;;;;;;6280000;22;19915;-93
2023/06/12 07:47:42;;;;;;;;;;;;;;;;;;6279922;22;20142;-92
2023/06/12 07:50:08;;;;;;;;;;;;;;;;;;6280047;22;19926;-93
2023/06/12 07:52:34;;;;;;;;;;;;;;;;;;6280494;22;19914;-93
2023/06/12 07:55:01;;;;;;;;;;;;;;;;;;6280825;22;19925;-94
2023/06/12 07:57:28;;;;;;;;;;;;;;;;;;6282995;22;19914;-92
2023/06/12 07:59:54;;;;;;;;;;;;;;;;;;6283591;22;19915;-92
2023/06/12 08:02:20;;;;;;;;;;;;;;;;;;6283084;22;19915;-93
2023/06/12 08:04:47;;;;;;;;;;;;;;;;;;6283124;22;19957;-93
2023/06/12 08:07:13;;;;;;;;;;;;;;;;;;6282244;22;19914;-93
2023/06/12 08:09:39;;;;;;;;;;;;;;;;;;6282078;22;19993;-93
2023/06/12 08:12:05;;;;;;;;;;;;;;;;;;6281425;22;19915;-92
2023/06/12 08:14:31;;;;;;;;;;;;;;;;;;6281844;22;19966;-94
2023/06/12 08:16:58;;;;;;;;;;;;;;;;;;6282141;22;19919;-91
2023/06/12 08:19:24;;;;;;;;;;;;;;;;;;6281873;22;20347;-93
2023/06/12 08:21:50;;;;;;;;;;;;;;;;;;6282122;22;19915;-93
2023/06/12 08:24:16;;;;;;;;;;;;;;;;;;6282628;22;19915;-94
2023/06/12 08:26:42;;;;;;;;;;;;;;;;;;6284796;22;19915;-93
2023/06/12 08:29:08;;;;;;;;;;;;;;;;;;6283380;22;20236;-94
2023/06/12 08:31:34;;;;;;;;;;;;;;;;;;6282170;22;19915;-93
2023/06/12 08:34:01;;;;;;;;;;;;;;;;;;6281882;22;20002;-93
2023/06/12 08:36:26;;;;;;;;;;;;;;;;;;6281744;22;19915;-92
2023/06/12 08:38:52;;;;;;;;;;;;;;;;;;6281402;22;19919;-92
2023/06/12 08:41:18;;;;;;;;;;;;;;;;;;6281520;22;19926;-93
2023/06/12 08:43:44;;;;;;;;;;;;;;;;;;6281636;22;19915;-92
2023/06/12 08:46:10;;;;;;;;;;;;;;;;;;6281728;22;19930;-92
2023/06/12 08:48:36;;;;;;;;;;;;;;;;;;6281999;22;19986;-94
2023/06/12 08:51:02;;;;;;;;;;;;;;;;;;6281430;22;19946;-95
2023/06/12 08:53:28;;;;;;;;;;;;;;;;;;6281924;22;19930;-93
2023/06/12 08:55:54;;;;;;;;;;;;;;;;;;6281792;22;19919;-93
2023/06/12 08:58:20;;;;;;;;;;;;;;;;;;6281323;22;19943;-94
2023/06/12 09:00:46;;;;;;;;;;;;;;;;;;6281823;22;19914;-95
2023/06/12 09:03:12;;;;;;;;;;;;;;;;;;6281522;22;19933;-92
2023/06/12 09:05:38;;;;;;;;;;;;;;;;;;6281732;22;19954;-93
2023/06/12 09:08:05;;;;;;;;;;;;;;;;;;6281358;22;19931;-93
2023/06/12 09:10:31;;;;;;;;;;;;;;;;;;6281652;22;20256;-94
2023/06/12 09:12:57;;;;;;;;;;;;;;;;;;6281597;22;19930;-93
2023/06/12 09:15:23;;;;;;;;;;;;;;;;;;6281110;22;19919;-93
2023/06/12 09:17:49;;;;;;;;;;;;;;;;;;6281524;22;19915;-93
2023/06/12 09:20:15;;;;;;;;;;;;;;;;;;6281013;22;19915;-92
2023/06/12 09:22:41;;;;;;;;;;;;;;;;;;6281466;22;19926;-94
2023/06/12 09:25:07;;;;;;;;;;;;;;;;;;6282899;22;19919;-94
2023/06/12 09:27:33;;;;;;;;;;;;;;;;;;6281000;22;19961;-94
2023/06/12 09:30:00;;;;;;;;;;;;;;;;;;6280834;22;19938;-92
2023/06/12 09:32:26;;;;;;;;;;;;;;;;;;6281241;22;19915;-93
2023/06/12 09:34:52;;;;;;;;;;;;;;;;;;6281064;22;19919;-93
2023/06/12 09:37:18;;;;;;;;;;;;;;;;;;6281107;22;20317;-94
2023/06/12 09:39:44;;;;;;;;;;;;;;;;;;6280831;22;19926;-94
2023/06/12 09:42:11;;;;;;;;;;;;;;;;;;6281597;22;19950;-94
2023/06/12 09:44:37;;;;;;;;;;;;;;;;;;6281036;22;20294;-92
2023/06/12 09:47:03;;;;;;;;;;;;;;;;;;6281399;22;19953;-93
2023/06/12 09:49:29;;;;;;;;;;;;;;;;;;6283043;22;20014;-93
2023/06/12 09:51:55;;;;;;;;;;;;;;;;;;6281138;22;19915;-93
2023/06/12 09:54:21;;;;;;;;;;;;;;;;;;6281328;22;19919;-95
2023/06/12 09:56:48;;;;;;;;;;;;;;;;;;6281034;22;19964;-93
2023/06/12 09:59:16;;;;;;;;;;;;;;;;;;6281777;22;19915;-93
2023/06/12 10:01:42;;;;;;;;;;;;;;;;;;6280998;22;19989;-94
2023/06/12 10:04:10;;;;;;;;;;;;;;;;;;6281934;22;20327;-94
2023/06/12 10:06:36;;;;;;;;;;;;;;;;;;6280949;22;19915;-94
2023/06/12 10:09:02;;;;;;;;;;;;;;;;;;6281010;22;19915;-94
2023/06/12 10:11:28;;;;;;;;;;;;;;;;;;6280997;22;19915;-93
2023/06/12 10:13:54;;;;;;;;;;;;;;;;;;6280911;22;19919;-92
2023/06/12 10:16:20;;;;;;;;;;;;;;;;;;6281040;22;19915;-94
2023/06/12 10:18:46;;;;;;;;;;;;;;;;;;6280366;22;19994;-91
2023/06/12 10:21:12;;;;;;;;;;;;;;;;;;6280865;22;19915;-93
2023/06/12 10:23:38;;;;;;;;;;;;;;;;;;6281297;22;19914;-93
2023/06/12 10:26:04;;;;;;;;;;;;;;;;;;6281295;22;20132;-93
2023/06/12 10:28:31;;;;;;;;;;;;;;;;;;6286166;22;20075;-92
2023/06/12 10:30:57;;;;;;;;;;;;;;;;;;6292829;22;19915;-93
2023/06/12 10:33:25;;;;;;;;;;;;;;;;;;6296178;22;19915;-92
2023/06/12 10:35:50;;;;;;;;;;;;;;;;;;6296062;22;19919;-91
2023/06/12 10:38:16;;;;;;;;;;;;;;;;;;6298200;22;20198;-93
2023/06/12 10:40:42;;;;;;;;;;;;;;;;;;6292560;22;20248;-93
2023/06/12 10:43:08;;;;;;;;;;;;;;;;;;6294391;22;19919;-93
2023/06/12 10:45:36;;;;;;;;;;;;;;;;;;6292652;22;19914;-93
2023/06/12 10:48:02;;;;;;;;;;;;;;;;;;6294355;22;19916;-93
2023/06/12 10:50:28;;;;;;;;;;;;;;;;;;6290813;22;19918;-93
2023/06/12 10:52:57;;;;;;;;;;;;;;;;;;6286032;22;20089;-92
2023/06/12 10:55:23;;;;;;;;;;;;;;;;;;6287338;22;19919;-92
2023/06/12 10:57:49;;;;;;;;;;;;;;;;;;6290367;22;19915;-93
2023/06/12 11:00:16;;;;;;;;;;;;;;;;;;6296539;22;19965;-92
2023/06/12 11:02:42;;;;;;;;;;;;;;;;;;6295047;22;19922;-92
2023/06/12 11:05:08;;;;;;;;;;;;;;;;;;6290258;22;19919;-94
2023/06/12 11:07:34;;;;;;;;;;;;;;;;;;6291598;22;19937;-93
2023/06/12 11:10:00;;;;;;;;;;;;;;;;;;6290672;22;19915;-92
2023/06/12 11:12:26;;;;;;;;;;;;;;;;;;6282128;22;19915;-93
2023/06/12 11:14:52;;;;;;;;;;;;;;;;;;6280451;22;19941;-93
2023/06/12 11:17:18;;;;;;;;;;;;;;;;;;6280741;22;19942;-93
2023/06/12 11:19:44;;;;;;;;;;;;;;;;;;6280035;22;19914;-93
2023/06/12 11:22:10;;;;;;;;;;;;;;;;;;6280612;22;20317;-93
2023/06/12 11:24:36;;;;;;;;;;;;;;;;;;6280807;22;19964;-93
2023/06/12 11:27:02;;;;;;;;;;;;;;;;;;6280205;22;19963;-92
2023/06/12 11:29:29;;;;;;;;;;;;;;;;;;6280106;22;19923;-94
2023/06/12 11:31:55;;;;;;;;;;;;;;;;;;6280285;22;19925;-93
2023/06/12 11:34:21;;;;;;;;;;;;;;;;;;6280177;22;19961;-93
2023/06/12 11:36:47;;;;;;;;;;;;;;;;;;6279739;22;19972;-93
2023/06/12 11:39:13;;;;;;;;;;;;;;;;;;6280017;22;19919;-92
2023/06/12 11:41:39;;;;;;;;;;;;;;;;;;6280133;22;19922;-92
2023/06/12 11:44:05;;;;;;;;;;;;;;;;;;6280301;22;19934;-91
2023/06/12 11:46:31;;;;;;;;;;;;;;;;;;6280275;22;19950;-93
2023/06/12 11:48:57;;;;;;;;;;;;;;;;;;6280713;22;19919;-92
2023/06/12 11:51:23;;;;;;;;;;;;;;;;;;6279884;22;20269;-92
2023/06/12 11:53:49;;;;;;;;;;;;;;;;;;6280145;22;20025;-93
2023/06/12 11:56:15;;;;;;;;;;;;;;;;;;6280001;22;19995;-93
2023/06/12 11:58:41;;;;;;;;;;;;;;;;;;6280370;22;19919;-92
2023/06/12 12:01:08;;;;;;;;;;;;;;;;;;6279452;22;20225;-92
2023/06/12 12:03:37;;;;;;;;;;;;;;;;;;6280162;22;19915;-92
2023/06/12 12:06:02;;;;;;;;;;;;;;;;;;6279530;22;19915;-92
2023/06/12 12:08:28;;;;;;;;;;;;;;;;;;6279839;22;19938;-92
2023/06/12 12:10:54;;;;;;;;;;;;;;;;;;6279645;22;19922;-92
2023/06/12 12:13:20;;;;;;;;;;;;;;;;;;6280199;22;19950;-92
2023/06/12 12:15:46;;;;;;;;;;;;;;;;;;6280039;22;19919;-92
2023/06/12 12:18:12;;;;;;;;;;;;;;;;;;6279544;22;19973;-92
2023/06/12 12:20:38;;;;;;;;;;;;;;;;;;6279902;22;19930;-91
2023/06/12 12:23:10;;;;;;;;;;;;;;;;;;6279489;22;20057;-93
2023/06/12 12:25:36;;;;;;;;;;;;;;;;;;6279431;22;19915;-91
2023/06/12 12:28:05;;;;;;;;;;;;;;;;;;6279312;22;19952;-93
2023/06/12 12:30:31;;;;;;;;;;;;;;;;;;6279706;22;19915;-93
2023/06/12 12:32:57;;;;;;;;;;;;;;;;;;6280128;22;19998;-95
2023/06/12 12:35:23;;;;;;;;;;;;;;;;;;6279563;22;19995;-93
2023/06/12 12:37:49;;;;;;;;;;;;;;;;;;6279833;22;19922;-93
2023/06/12 12:40:15;;;;;;;;;;;;;;;;;;6279301;22;19990;-93
2023/06/12 12:42:41;;;;;;;;;;;;;;;;;;6280509;22;19915;-93
2023/06/12 12:45:10;;;;;;;;;;;;;;;;;;6281532;22;20301;-92
2023/06/12 12:47:36;;;;;;;;;;;;;;;;;;6281991;22;19922;-92
2023/06/12 12:50:03;;;;;;;;;;;;;;;;;;6281424;22;19915;-93
2023/06/12 12:52:29;;;;;;;;;;;;;;;;;;6281536;22;20355;-92
2023/06/12 12:54:55;;;;;;;;;;;;;;;;;;6281177;22;19919;-94
2023/06/12 12:57:21;;;;;;;;;;;;;;;;;;6281734;22;19914;-93
2023/06/12 12:59:47;;;;;;;;;;;;;;;;;;6281664;22;19991;-92
2023/06/12 13:02:13;;;;;;;;;;;;;;;;;;6281954;22;19923;-93
2023/06/12 13:04:39;;;;;;;;;;;;;;;;;;6281310;22;20317;-93
2023/06/12 13:07:05;;;;;;;;;;;;;;;;;;6281628;22;19994;-93
2023/06/12 13:09:31;;;;;;;;;;;;;;;;;;6281037;22;19915;-91
2023/06/12 13:11:57;;;;;;;;;;;;;;;;;;6281151;22;19964;-93
2023/06/12 13:14:23;;;;;;;;;;;;;;;;;;6281109;22;19962;-92
2023/06/12 13:16:50;;;;;;;;;;;;;;;;;;6281231;22;19915;-94
2023/06/12 13:19:16;;;;;;;;;;;;;;;;;;6281185;22;19915;-93
2023/06/12 13:21:42;;;;;;;;;;;;;;;;;;6281361;22;19915;-93
2023/06/12 13:24:08;;;;;;;;;;;;;;;;;;6281641;22;19993;-92
2023/06/12 13:26:34;;;;;;;;;;;;;;;;;;6281229;22;19922;-93
2023/06/12 13:29:01;;;;;;;;;;;;;;;;;;6281052;22;19915;-92
2023/06/12 13:31:27;;;;;;;;;;;;;;;;;;6281410;22;19918;-93
2023/06/12 13:33:53;;;;;;;;;;;;;;;;;;6281418;22;19915;-92
2023/06/12 13:36:19;;;;;;;;;;;;;;;;;;6281934;22;19923;-92
2023/06/12 13:38:46;;;;;;;;;;;;;;;;;;6281167;22;19923;-93
2023/06/12 13:41:12;;;;;;;;;;;;;;;;;;6281110;22;19926;-93
2023/06/12 13:43:38;;;;;;;;;;;;;;;;;;6281264;22;19919;-93
2023/06/12 13:46:04;;;;;;;;;;;;;;;;;;6281385;22;19981;-92
2023/06/12 13:48:30;;;;;;;;;;;;;;;;;;6281862;22;19925;-92
2023/06/12 13:50:58;;;;;;;;;;;;;;;;;;6281509;22;19915;-93
2023/06/12 13:53:24;;;;;;;;;;;;;;;;;;6281352;22;19923;-93
2023/06/12 13:55:50;;;;;;;;;;;;;;;;;;6281276;22;19919;-92
2023/06/12 13:58:16;;;;;;;;;;;;;;;;;;6281592;22;20165;-93
2023/06/12 14:00:42;;;;;;;;;;;;;;;;;;6281736;22;19943;-94
2023/06/12 14:03:08;;;;;;;;;;;;;;;;;;6281180;22;20287;-93
2023/06/12 14:05:34;;;;;;;;;;;;;;;;;;6281254;22;19980;-93
2023/06/12 14:08:00;;;;;;;;;;;;;;;;;;6281438;22;19915;-93
2023/06/12 14:10:26;;;;;;;;;;;;;;;;;;6281508;22;19921;-93
2023/06/12 14:12:54;;;;;;;;;;;;;;;;;;6281933;22;19931;-92
2023/06/12 14:15:20;;;;;;;;;;;;;;;;;;6282782;22;20287;-93
2023/06/12 14:17:46;;;;;;;;;;;;;;;;;;6281069;22;19921;-92
2023/06/12 14:20:12;;;;;;;;;;;;;;;;;;6281060;22;20018;-93
2023/06/12 14:22:39;;;;;;;;;;;;;;;;;;6281140;22;19934;-92
2023/06/12 14:25:05;;;;;;;;;;;;;;;;;;6281025;22;19915;-93
2023/06/12 14:27:31;;;;;;;;;;;;;;;;;;6281333;22;19950;-93
2023/06/12 14:29:57;;;;;;;;;;;;;;;;;;6280928;22;19923;-93
2023/06/12 14:32:23;;;;;;;;;;;;;;;;;;6281732;22;20372;-92
2023/06/12 14:34:49;;;;;;;;;;;;;;;;;;6285532;22;19919;-92
2023/06/12 14:37:15;;;;;;;;;;;;;;;;;;6285872;22;19946;-93
2023/06/12 14:39:41;;;;;;;;;;;;;;;;;;6287486;22;20244;-93
2023/06/12 14:42:07;;;;;;;;;;;;;;;;;;6289042;22;19941;-92
2023/06/12 14:44:33;;;;;;;;;;;;;;;;;;6289951;22;20032;-94
2023/06/12 14:46:59;;;;;;;;;;;;;;;;;;6283788;22;19915;-94
2023/06/12 14:49:25;;;;;;;;;;;;;;;;;;6284641;22;19915;-94
2023/06/12 14:51:51;;;;;;;;;;;;;;;;;;6281804;22;19915;-93
2023/06/12 14:54:20;;;;;;;;;;;;;;;;;;6283783;22;19919;-93
2023/06/12 14:56:46;;;;;;;;;;;;;;;;;;6291254;22;20229;-93
2023/06/12 14:59:12;;;;;;;;;;;;;;;;;;6290228;22;19921;-93
2023/06/12 15:01:38;;;;;;;;;;;;;;;;;;6280306;22;19994;-94
2023/06/12 15:04:04;;;;;;;;;;;;;;;;;;6280949;22;19946;-93
2023/06/12 15:06:30;;;;;;;;;;;;;;;;;;6279843;22;19922;-92
2023/06/12 15:08:56;;;;;;;;;;;;;;;;;;6280194;22;19915;-94
2023/06/12 15:11:22;;;;;;;;;;;;;;;;;;6280509;22;19955;-93
2023/06/12 15:13:48;;;;;;;;;;;;;;;;;;6280281;22;19918;-92
2023/06/12 15:16:14;;;;;;;;;;;;;;;;;;6280352;22;19922;-92
2023/06/12 15:18:40;;;;;;;;;;;;;;;;;;6281976;22;19915;-93
2023/06/12 15:21:06;;;;;;;;;;;;;;;;;;6280884;22;19976;-92
2023/06/12 15:23:32;;;;;;;;;;;;;;;;;;6280604;22;19948;-93
2023/06/12 15:25:58;;;;;;;;;;;;;;;;;;6280411;22;19989;-93
2023/06/12 15:28:24;;;;;;;;;;;;;;;;;;6280348;22;19922;-92
2023/06/12 15:30:49;;;;;;;;;;;;;;;;;;6279851;22;19915;-93
2023/06/12 15:33:15;;;;;;;;;;;;;;;;;;6280623;22;19915;-93
2023/06/12 15:35:44;;;;;;;;;;;;;;;;;;6279952;22;19927;-94
2023/06/12 15:38:09;;;;;;;;;;;;;;;;;;6280687;22;19937;-93
2023/06/12 15:40:35;;;;;;;;;;;;;;;;;;6280206;22;19954;-93
2023/06/12 15:43:01;;;;;;;;;;;;;;;;;;6280645;22;19933;-94
2023/06/12 15:45:27;;;;;;;;;;;;;;;;;;6280619;22;20251;-92
2023/06/12 15:47:53;;;;;;;;;;;;;;;;;;6279955;22;19922;-93
2023/06/12 15:50:19;;;;;;;;;;;;;;;;;;6280831;22;19915;-93
2023/06/12 15:52:45;;;;;;;;;;;;;;;;;;6280335;22;20028;-93
2023/06/12 15:55:11;;;;;;;;;;;;;;;;;;6279714;22;19919;-92
2023/06/12 15:57:37;;;;;;;;;;;;;;;;;;6280262;22;19922;-94
2023/06/12 16:00:03;;;;;;;;;;;;;;;;;;6280516;22;19915;-94
2023/06/12 16:02:30;;;;;;;;;;;;;;;;;;6280396;22;19993;-94
2023/06/12 16:04:56;;;;;;;;;;;;;;;;;;6280914;22;19922;-93
2023/06/12 16:07:21;;;;;;;;;;;;;;;;;;6280527;22;20245;-94
2023/06/12 16:09:47;;;;;;;;;;;;;;;;;;6280293;22;19918;-95
2023/06/12 16:12:13;;;;;;;;;;;;;;;;;;6280226;22;20014;-95
2023/06/12 16:14:39;;;;;;;;;;;;;;;;;;6280345;22;19919;-94
2023/06/12 16:17:06;;;;;;;;;;;;;;;;;;6280100;22;19921;-95
2023/06/12 16:19:32;;;;;;;;;;;;;;;;;;6283275;22;20012;-94
2023/06/12 16:21:58;;;;;;;;;;;;;;;;;;6283041;22;19923;-94
2023/06/12 16:24:25;;;;;;;;;;;;;;;;;;6282464;22;19918;-94
2023/06/12 16:26:51;;;;;;;;;;;;;;;;;;6282594;22;20004;-94
2023/06/12 16:29:17;;;;;;;;;;;;;;;;;;6282401;22;20166;-94
2023/06/12 16:31:43;;;;;;;;;;;;;;;;;;6281730;22;19956;-94
2023/06/12 16:34:09;;;;;;;;;;;;;;;;;;6281892;22;19962;-93
2023/06/12 16:36:36;;;;;;;;;;;;;;;;;;6281932;22;19915;-92
2023/06/12 16:39:03;;;;;;;;;;;;;;;;;;6282088;22;20163;-94